createdAt,value
2022-10-20T00:02:09.618Z,11.57
2022-10-20T00:04:36.027Z,8.70
2022-10-20T00:07:02.458Z,10.57
2022-10-20T00:09:29.128Z,9.03
2022-10-20T00:11:55.689Z,8.70
2022-10-20T00:14:22.185Z,13.40
2022-10-20T00:16:48.624Z,9.53
2022-10-20T00:19:15.069Z,7.03
2022-10-20T00:21:41.490Z,6.63
2022-10-20T00:24:08.050Z,11.30
2022-10-20T00:26:34.509Z,7.87
2022-10-20T00:29:02.952Z,10.43
2022-10-20T00:31:29.832Z,5.70
2022-10-20T00:33:56.312Z,7.33
2022-10-20T00:36:23.390Z,9.57
2022-10-20T00:38:50.939Z,6.83
2022-10-20T00:41:19.871Z,7.97
2022-10-20T00:43:53.568Z,8.90
2022-10-20T00:46:22.636Z,6.93
2022-10-20T00:48:53.203Z,6.03
2022-10-20T00:51:22.740Z,8.67
2022-10-20T00:53:50.985Z,9.00
2022-10-20T00:56:17.462Z,9.40
2022-10-20T00:58:44.025Z,9.90
2022-10-20T01:01:11.488Z,8.90
2022-10-20T01:03:47.509Z,7.50
2022-10-20T01:08:47.254Z,7.37
2022-10-20T01:11:25.905Z,8.23
2022-10-20T01:14:19.851Z,5.43
2022-10-20T01:16:59.169Z,10.83
2022-10-20T01:19:39.515Z,5.30
2022-10-20T01:22:14.321Z,12.07
2022-10-20T01:24:50.884Z,10.13
2022-10-20T01:27:37.748Z,5.43
2022-10-20T01:30:19.197Z,5.47
2022-10-20T01:32:53.575Z,6.70
2022-10-20T01:35:22.997Z,10.27
2022-10-20T01:38:20.933Z,13.57
2022-10-20T01:41:09.717Z,11.90
2022-10-20T01:43:38.682Z,7.07
2022-10-20T01:46:06.622Z,9.97
2022-10-20T01:48:35.251Z,5.90
2022-10-20T01:51:02.481Z,5.73
2022-10-20T01:53:29.019Z,12.10
2022-10-20T01:55:56.993Z,8.97
2022-10-20T01:58:48.251Z,7.10
2022-10-20T02:01:34.497Z,10.33
2022-10-20T02:04:03.153Z,5.33
2022-10-20T02:07:08.090Z,6.37
2022-10-20T02:09:46.065Z,6.20
2022-10-20T02:12:17.722Z,4.67
2022-10-20T02:14:45.456Z,6.17
2022-10-20T02:17:14.929Z,9.00
2022-10-20T02:19:43.396Z,9.47
2022-10-20T02:22:11.510Z,6.50
2022-10-20T02:24:40.214Z,7.80
2022-10-20T02:27:22.114Z,7.10
2022-10-20T02:29:58.726Z,5.70
2022-10-20T02:32:25.672Z,6.13
2022-10-20T02:34:52.100Z,6.87
2022-10-20T02:37:18.517Z,8.13
2022-10-20T02:39:45.182Z,6.03
2022-10-20T02:42:12.626Z,5.47
2022-10-20T02:44:39.068Z,5.83
2022-10-20T02:47:05.625Z,5.10
2022-10-20T02:49:32.044Z,9.07
2022-10-20T02:51:58.544Z,8.27
2022-10-20T02:54:24.946Z,5.83
2022-10-20T02:56:51.330Z,6.53
2022-10-20T02:59:17.868Z,7.13
2022-10-20T03:01:44.936Z,7.93
2022-10-20T03:04:12.446Z,8.23
2022-10-20T03:06:40.197Z,7.20
2022-10-20T03:09:06.699Z,12.63
2022-10-20T03:11:33.201Z,5.40
2022-10-20T03:13:59.702Z,6.97
2022-10-20T03:16:26.353Z,6.67
2022-10-20T03:18:53.223Z,5.83
2022-10-20T03:21:19.709Z,8.77
2022-10-20T03:23:46.212Z,9.03
2022-10-20T03:26:12.707Z,6.00
2022-10-20T03:28:39.927Z,5.67
2022-10-20T03:31:07.090Z,8.50
2022-10-20T03:33:33.843Z,5.83
2022-10-20T03:36:00.589Z,9.40
2022-10-20T03:38:27.017Z,6.60
2022-10-20T03:40:53.498Z,8.27
2022-10-20T03:43:19.977Z,5.87
2022-10-20T03:45:46.368Z,5.20
2022-10-20T03:48:12.811Z,6.60
2022-10-20T03:50:40.335Z,9.03
2022-10-20T03:53:07.620Z,6.43
2022-10-20T03:55:33.998Z,6.63
2022-10-20T03:58:00.380Z,6.90
2022-10-20T04:00:26.928Z,7.67
2022-10-20T04:02:53.704Z,8.73
2022-10-20T04:05:20.675Z,6.30
2022-10-20T04:07:47.503Z,7.40
2022-10-20T04:10:15.160Z,6.83
2022-10-20T04:12:41.539Z,8.53
2022-10-20T04:15:08.530Z,9.50
2022-10-20T04:17:34.999Z,5.47
2022-10-20T04:20:01.510Z,5.33
2022-10-20T04:22:28.057Z,10.57
2022-10-20T04:24:54.518Z,7.60
2022-10-20T04:27:21.066Z,10.63
2022-10-20T04:29:47.879Z,7.87
2022-10-20T04:32:14.321Z,10.30
2022-10-20T04:34:40.728Z,6.23
2022-10-20T04:37:07.137Z,8.07
2022-10-20T04:39:33.563Z,10.27
2022-10-20T04:42:00.810Z,5.93
2022-10-20T04:44:27.273Z,6.93
2022-10-20T04:46:56.964Z,9.40
2022-10-20T04:49:23.741Z,6.17
2022-10-20T04:51:50.169Z,10.50
2022-10-20T04:54:16.646Z,10.90
2022-10-20T04:56:43.063Z,5.87
2022-10-20T04:59:12.720Z,7.93
2022-10-20T05:01:40.687Z,8.93
2022-10-20T05:04:07.372Z,8.27
2022-10-20T05:06:33.939Z,6.80
2022-10-20T05:09:02.459Z,9.23
2022-10-20T05:11:30.898Z,7.13
2022-10-20T05:13:57.451Z,8.07
2022-10-20T05:16:24.295Z,10.43
2022-10-20T05:18:52.307Z,4.97
2022-10-20T05:21:23.943Z,9.43
2022-10-20T05:23:58.559Z,12.40
2022-10-20T05:26:26.106Z,8.67
2022-10-20T05:28:52.576Z,6.13
2022-10-20T05:31:21.948Z,5.27
2022-10-20T05:33:50.636Z,7.90
2022-10-20T05:36:21.567Z,10.87
2022-10-20T05:38:49.372Z,10.43
2022-10-20T05:41:18.147Z,7.50
2022-10-20T05:43:52.543Z,8.60
2022-10-20T05:46:19.789Z,6.80
2022-10-20T05:48:47.065Z,6.40
2022-10-20T05:51:19.151Z,7.20
2022-10-20T05:53:47.063Z,12.03
2022-10-20T05:56:15.923Z,10.67
2022-10-20T05:58:43.569Z,9.10
2022-10-20T06:01:17.268Z,7.97
2022-10-20T06:04:00.962Z,16.03
2022-10-20T06:06:30.011Z,10.80
2022-10-20T06:08:58.758Z,8.43
2022-10-20T06:11:26.113Z,9.57
2022-10-20T06:13:53.305Z,14.17
2022-10-20T06:16:22.190Z,11.70
2022-10-20T06:18:48.729Z,8.13
2022-10-20T06:21:17.977Z,6.03
2022-10-20T06:23:47.414Z,6.33
2022-10-20T06:26:19.196Z,7.33
2022-10-20T06:28:48.542Z,6.47
2022-10-20T06:31:16.126Z,5.93
2022-10-20T06:33:43.449Z,6.80
2022-10-20T06:36:10.974Z,6.27
2022-10-20T06:38:38.600Z,5.10
2022-10-20T06:41:07.123Z,7.30
2022-10-20T06:43:33.907Z,6.60
2022-10-20T06:46:05.389Z,4.20
2022-10-20T06:48:33.071Z,7.77
2022-10-20T06:51:02.736Z,12.87
2022-10-20T06:53:30.048Z,7.13
2022-10-20T06:56:07.463Z,6.07
2022-10-20T06:58:35.490Z,6.10
2022-10-20T07:01:09.882Z,7.90
2022-10-20T07:03:38.470Z,6.60
2022-10-20T07:06:06.476Z,7.43
2022-10-20T07:08:34.326Z,7.00
2022-10-20T07:11:07.556Z,4.63
2022-10-20T07:13:35.508Z,8.20
2022-10-20T07:16:02.764Z,5.00
2022-10-20T07:18:29.882Z,4.60
2022-10-20T07:21:00.743Z,10.90
2022-10-20T07:23:29.173Z,7.00
2022-10-20T07:26:06.808Z,6.33
2022-10-20T07:28:34.272Z,5.83
2022-10-20T07:31:08.807Z,9.47
2022-10-20T07:33:35.905Z,8.63
2022-10-20T07:36:02.337Z,8.13
2022-10-20T07:38:29.784Z,5.93
2022-10-20T07:41:02.382Z,6.70
2022-10-20T07:43:29.178Z,5.30
2022-10-20T07:45:55.627Z,6.20
2022-10-20T07:48:22.103Z,9.57
2022-10-20T07:50:48.704Z,6.03
2022-10-20T07:53:15.109Z,9.03
2022-10-20T07:55:41.493Z,8.10
2022-10-20T07:58:08.016Z,7.80
2022-10-20T08:00:34.591Z,19.30
2022-10-20T08:03:01.079Z,6.47
2022-10-20T08:05:29.501Z,6.00
2022-10-20T08:07:58.309Z,8.97
2022-10-20T08:10:24.992Z,9.10
2022-10-20T08:12:51.681Z,6.73
2022-10-20T08:15:20.254Z,8.87
2022-10-20T08:17:46.662Z,8.60
2022-10-20T08:20:20.441Z,8.03
2022-10-20T08:22:48.905Z,10.83
2022-10-20T08:25:15.503Z,6.50
2022-10-20T08:27:42.238Z,12.70
2022-10-20T08:30:23.475Z,9.07
2022-10-20T08:32:52.620Z,7.07
2022-10-20T08:35:20.243Z,7.63
2022-10-20T08:37:46.650Z,10.17
2022-10-20T08:40:28.161Z,6.50
2022-10-20T08:42:54.853Z,7.33
2022-10-20T08:45:24.479Z,9.70
2022-10-20T08:47:54.097Z,9.43
2022-10-20T08:50:22.047Z,8.00
2022-10-20T08:52:54.255Z,9.00
2022-10-20T08:55:32.535Z,6.57
2022-10-20T08:58:04.969Z,7.80
2022-10-20T09:00:33.153Z,6.87
2022-10-20T09:03:13.841Z,12.93
2022-10-20T09:05:42.025Z,7.33
2022-10-20T09:08:08.715Z,9.40
2022-10-20T09:10:47.989Z,8.20
2022-10-20T09:13:25.720Z,8.23
2022-10-20T09:15:56.462Z,8.20
2022-10-20T09:18:23.126Z,6.63
2022-10-20T09:20:56.296Z,7.43
2022-10-20T09:23:42.940Z,7.07
2022-10-20T09:26:30.379Z,6.90
2022-10-20T09:29:16.476Z,5.80
2022-10-20T09:31:45.067Z,6.57
2022-10-20T09:34:32.608Z,7.83
2022-10-20T09:37:08.147Z,5.97
2022-10-20T09:39:49.198Z,7.77
2022-10-20T09:42:24.857Z,10.67
2022-10-20T09:45:01.108Z,12.50
2022-10-20T09:47:28.597Z,8.50
2022-10-20T09:50:01.049Z,7.63
2022-10-20T09:52:31.828Z,7.80
2022-10-20T09:55:26.790Z,9.80
2022-10-20T09:57:54.350Z,13.60
2022-10-20T10:00:37.228Z,8.63
2022-10-20T10:03:21.560Z,8.57
2022-10-20T10:05:59.385Z,10.40
2022-10-20T10:08:28.716Z,8.80
2022-10-20T10:11:01.586Z,7.70
2022-10-20T10:13:30.757Z,7.53
2022-10-20T10:16:02.938Z,10.67
2022-10-20T10:18:29.724Z,8.70
2022-10-20T10:21:02.576Z,10.50
2022-10-20T10:23:31.132Z,10.97
2022-10-20T10:26:00.683Z,7.80
2022-10-20T10:28:34.030Z,8.20
2022-10-20T10:31:22.377Z,8.10
2022-10-20T10:33:52.148Z,11.23
2022-10-20T10:36:26.769Z,8.63
2022-10-20T10:38:53.912Z,9.63
2022-10-20T10:41:44.973Z,10.33
2022-10-20T10:44:27.306Z,8.70
2022-10-20T10:47:14.805Z,11.27
2022-10-20T10:49:59.457Z,7.87
2022-10-20T10:52:51.025Z,9.23
2022-10-20T10:55:47.396Z,13.27
2022-10-20T10:58:25.445Z,7.67
2022-10-20T11:01:17.682Z,7.03
2022-10-20T11:04:06.209Z,8.43
2022-10-20T11:06:48.852Z,11.33
2022-10-20T11:09:38.518Z,8.40
2022-10-20T11:12:04.865Z,7.97
2022-10-20T11:14:54.525Z,8.07
2022-10-20T11:17:33.006Z,13.67
2022-10-20T11:20:19.788Z,7.60
2022-10-20T11:22:55.559Z,9.07
2022-10-20T11:25:33.560Z,12.40
2022-10-20T11:28:00.658Z,9.63
2022-10-20T11:30:27.493Z,8.67
2022-10-20T11:33:20.207Z,6.67
2022-10-20T11:36:03.995Z,11.10
2022-10-20T11:38:44.172Z,7.13
2022-10-20T11:41:35.311Z,10.87
2022-10-20T11:44:28.163Z,9.33
2022-10-20T11:46:58.638Z,8.30
2022-10-20T11:49:25.084Z,8.43
2022-10-20T11:52:14.111Z,10.00
2022-10-20T11:55:06.930Z,7.23
2022-10-20T11:57:39.439Z,10.03
2022-10-20T12:00:24.604Z,10.43
2022-10-20T12:03:09.456Z,8.10
2022-10-20T12:06:00.894Z,11.13
2022-10-20T12:08:37.356Z,8.80
2022-10-20T12:11:12.936Z,10.33
2022-10-20T12:14:07.201Z,6.20
2022-10-20T12:16:55.915Z,9.77
2022-10-20T12:19:25.639Z,9.83
2022-10-20T12:22:08.371Z,10.27
2022-10-20T12:24:34.807Z,8.23
2022-10-20T12:27:02.970Z,10.27
2022-10-20T12:29:32.180Z,9.73
2022-10-20T12:32:37.503Z,7.50
2022-10-20T12:35:24.034Z,8.97
2022-10-20T12:38:02.308Z,11.13
2022-10-20T12:40:55.089Z,10.63
2022-10-20T12:43:29.210Z,12.83
2022-10-20T12:46:05.148Z,9.60
2022-10-20T12:48:34.013Z,12.47
2022-10-20T12:51:07.985Z,6.33
2022-10-20T12:53:34.627Z,10.50
2022-10-20T12:56:07.009Z,7.97
2022-10-20T12:59:10.076Z,10.43
2022-10-20T13:02:21.835Z,11.60
2022-10-20T13:04:58.092Z,8.83
2022-10-20T13:07:46.560Z,12.00
2022-10-20T13:10:31.284Z,7.90
2022-10-20T13:13:03.664Z,7.33
2022-10-20T13:15:32.913Z,9.30
2022-10-20T13:18:02.457Z,9.27
2022-10-20T13:21:01.716Z,8.43
2022-10-20T13:23:38.738Z,8.53
2022-10-20T13:26:25.406Z,7.87
2022-10-20T13:28:53.652Z,6.43
2022-10-20T13:31:44.069Z,7.10
2022-10-20T13:34:18.698Z,11.23
2022-10-20T13:37:21.644Z,9.53
2022-10-20T13:40:27.640Z,6.10
2022-10-20T13:43:32.699Z,7.17
2022-10-20T13:46:08.020Z,7.97
2022-10-20T13:48:45.024Z,5.60
2022-10-20T13:51:25.755Z,13.30
2022-10-20T13:53:55.178Z,6.23
2022-10-20T13:56:35.458Z,8.40
2022-10-20T13:59:05.937Z,6.77
2022-10-20T14:01:35.672Z,8.43
2022-10-20T14:04:02.346Z,7.47
2022-10-20T14:06:36.321Z,6.60
2022-10-20T14:09:11.859Z,6.93
2022-10-20T14:11:39.040Z,11.00
2022-10-20T14:14:07.770Z,7.57
2022-10-20T14:16:34.184Z,8.40
2022-10-20T14:19:12.756Z,7.53
2022-10-20T14:21:49.309Z,9.87
2022-10-20T14:24:22.617Z,5.57
2022-10-20T14:26:49.799Z,5.83
2022-10-20T14:29:17.409Z,9.00
2022-10-20T14:31:45.918Z,9.47
2022-10-20T14:34:29.431Z,7.87
2022-10-20T14:36:56.873Z,7.00
2022-10-20T14:39:38.400Z,8.80
2022-10-20T14:42:19.638Z,9.17
2022-10-20T14:44:46.187Z,6.77
2022-10-20T14:47:13.963Z,6.63
2022-10-20T14:49:42.162Z,8.27
2022-10-20T14:52:20.382Z,9.77
2022-10-20T14:54:49.616Z,12.20
2022-10-20T14:57:16.315Z,10.13
2022-10-20T15:00:02.468Z,7.40
2022-10-20T15:02:39.974Z,8.50
2022-10-20T15:05:22.539Z,8.70
2022-10-20T15:07:49.267Z,7.93
2022-10-20T15:10:16.803Z,7.07
2022-10-20T15:12:46.261Z,8.80
2022-10-20T15:15:12.781Z,6.40
2022-10-20T15:17:43.620Z,8.43
2022-10-20T15:20:32.831Z,12.43
2022-10-20T15:23:07.639Z,7.13
2022-10-20T15:25:47.505Z,11.30
2022-10-20T15:28:23.532Z,12.13
2022-10-20T15:30:50.197Z,9.30
2022-10-20T15:33:16.629Z,9.00
2022-10-20T15:35:47.013Z,11.07
2022-10-20T15:38:14.386Z,11.77
2022-10-20T15:40:41.254Z,10.33
2022-10-20T15:43:11.930Z,8.97
2022-10-20T15:45:40.802Z,15.60
2022-10-20T15:48:07.229Z,13.73
2022-10-20T15:50:33.912Z,8.47
2022-10-20T15:53:00.342Z,10.83
2022-10-20T15:55:32.390Z,10.00
2022-10-20T15:57:59.025Z,12.83
2022-10-20T16:00:27.403Z,14.43
2022-10-20T16:02:55.566Z,13.37
2022-10-20T16:05:27.094Z,13.60
2022-10-20T16:07:54.446Z,12.67
2022-10-20T16:10:28.514Z,12.67
2022-10-20T16:12:55.328Z,10.70
2022-10-20T16:15:22.444Z,8.83
2022-10-20T16:20:21.850Z,11.20
2022-10-20T16:22:48.342Z,10.47
2022-10-20T16:25:14.741Z,10.27
2022-10-20T16:27:41.211Z,14.43
2022-10-20T16:30:08.575Z,10.97
2022-10-20T16:32:35.708Z,13.40
2022-10-20T16:35:04.264Z,13.93
2022-10-20T16:37:32.159Z,12.50
2022-10-20T16:39:59.528Z,14.90
2022-10-20T16:42:27.422Z,13.17
2022-10-20T16:44:53.866Z,13.43
2022-10-20T16:47:20.340Z,14.37
2022-10-20T16:49:46.755Z,20.33
2022-10-20T16:52:13.299Z,16.47
2022-10-20T16:57:12.720Z,11.20
2022-10-20T16:59:39.480Z,11.33
2022-10-20T17:02:06.227Z,13.93
2022-10-20T17:04:32.629Z,12.53
2022-10-20T17:06:59.149Z,13.80
2022-10-20T17:09:25.714Z,14.40
2022-10-20T17:11:52.220Z,17.67
2022-10-20T17:14:18.700Z,23.43
2022-10-20T17:16:47.211Z,39.40
2022-10-20T17:19:14.061Z,27.57
2022-10-20T17:21:40.541Z,12.40
2022-10-20T17:24:11.203Z,16.53
2022-10-20T17:26:38.353Z,10.13
2022-10-20T17:29:05.046Z,13.37
2022-10-20T17:31:31.708Z,12.03
2022-10-20T17:33:58.900Z,11.80
2022-10-20T17:36:26.477Z,19.73
2022-10-20T17:38:56.109Z,13.33
2022-10-20T17:41:22.838Z,14.20
2022-10-20T17:43:49.307Z,16.17
2022-10-20T17:46:17.743Z,13.03
2022-10-20T17:48:44.794Z,15.43
2022-10-20T17:51:20.531Z,16.03
2022-10-20T17:53:48.355Z,15.37
2022-10-20T17:56:16.157Z,13.27
2022-10-20T17:58:43.868Z,15.83
2022-10-20T18:01:17.030Z,17.80
2022-10-20T18:03:44.336Z,13.77
2022-10-20T18:06:19.328Z,15.23
2022-10-20T18:08:46.775Z,20.03
2022-10-20T18:11:18.978Z,33.07
2022-10-20T18:13:45.879Z,16.77
2022-10-20T18:16:14.306Z,16.93
2022-10-20T18:18:40.868Z,15.77
2022-10-20T18:21:12.480Z,15.03
2022-10-20T18:23:41.291Z,14.53
2022-10-20T18:26:19.071Z,16.93
2022-10-20T18:28:48.280Z,16.13
2022-10-20T18:31:23.296Z,17.63
2022-10-20T18:33:51.174Z,15.90
2022-10-20T18:36:18.760Z,17.50
2022-10-20T18:38:46.562Z,15.93
2022-10-20T18:41:24.799Z,16.90
2022-10-20T18:43:58.012Z,14.40
2022-10-20T18:46:26.524Z,14.27
2022-10-20T18:48:53.280Z,14.00
2022-10-20T18:51:19.713Z,19.50
2022-10-20T18:53:46.750Z,14.70
2022-10-20T18:56:14.351Z,15.83
2022-10-20T18:58:42.956Z,15.93
2022-10-20T19:01:12.572Z,18.47
2022-10-20T19:03:40.243Z,20.70
2022-10-20T19:06:27.752Z,28.13
2022-10-20T19:08:56.756Z,23.77
2022-10-20T19:11:25.463Z,18.20
2022-10-20T19:13:52.385Z,16.47
2022-10-20T19:16:20.937Z,15.33
2022-10-20T19:18:49.673Z,15.57
2022-10-20T19:21:17.096Z,24.83
2022-10-20T19:23:46.529Z,23.40
2022-10-20T19:26:28.269Z,23.83
2022-10-20T19:28:58.881Z,19.37
2022-10-20T19:31:50.467Z,17.60
2022-10-20T19:34:20.716Z,19.27
2022-10-20T19:36:47.310Z,18.87
2022-10-20T19:39:16.593Z,18.80
2022-10-20T19:41:43.180Z,13.27
2022-10-20T19:44:15.227Z,15.47
2022-10-20T19:46:42.992Z,22.43
2022-10-20T19:49:09.512Z,13.50
2022-10-20T19:51:36.105Z,21.47
2022-10-20T19:54:02.667Z,15.90
2022-10-20T19:56:29.135Z,17.63
2022-10-20T19:58:55.611Z,15.47
2022-10-20T20:01:22.099Z,17.20
2022-10-20T20:03:48.699Z,20.40
2022-10-20T20:06:18.791Z,18.00
2022-10-20T20:08:47.156Z,16.20
2022-10-20T20:11:23.374Z,21.10
2022-10-20T20:13:54.252Z,22.07
2022-10-20T20:16:21.490Z,16.67
2022-10-20T20:18:48.255Z,16.53
2022-10-20T20:21:15.074Z,22.60
2022-10-20T20:23:58.241Z,18.20
2022-10-20T20:26:27.379Z,23.10
2022-10-20T20:28:54.429Z,26.40
2022-10-20T20:31:21.744Z,23.67
2022-10-20T20:33:48.471Z,19.37
2022-10-20T20:36:14.873Z,21.90
2022-10-20T20:38:41.793Z,21.47
2022-10-20T20:41:12.243Z,23.13
2022-10-20T20:43:39.019Z,23.63
2022-10-20T20:46:10.700Z,21.00
2022-10-20T20:48:37.696Z,27.97
2022-10-20T20:51:04.760Z,22.60
2022-10-20T20:53:31.229Z,21.63
2022-10-20T20:56:00.270Z,22.70
2022-10-20T20:58:28.342Z,26.90
2022-10-20T21:01:08.702Z,21.73
2022-10-20T21:03:35.633Z,27.33
2022-10-20T21:06:10.023Z,25.37
2022-10-20T21:08:38.738Z,28.70
2022-10-20T21:11:13.255Z,22.10
2022-10-20T21:13:41.963Z,22.50
2022-10-20T21:16:13.968Z,23.73
2022-10-20T21:18:41.889Z,25.17
2022-10-20T21:23:43.714Z,27.60
2022-10-20T21:26:11.861Z,27.17
2022-10-20T21:28:38.677Z,25.40
2022-10-20T21:31:06.626Z,29.23
2022-10-20T21:33:33.856Z,28.20
2022-10-20T21:36:01.831Z,30.93
2022-10-20T21:38:32.445Z,29.30
2022-10-20T21:41:07.167Z,35.17
2022-10-20T21:43:35.233Z,29.40
2022-10-20T21:46:18.989Z,25.10
2022-10-20T21:48:46.799Z,28.13
2022-10-20T21:51:15.204Z,33.40
2022-10-20T21:53:41.968Z,31.07
2022-10-20T21:56:08.582Z,33.83
2022-10-20T21:58:35.942Z,31.47
2022-10-20T22:01:28.864Z,32.70
2022-10-20T22:03:55.635Z,30.23
2022-10-20T22:06:24.590Z,32.53
2022-10-20T22:08:53.834Z,29.73
2022-10-20T22:11:32.389Z,36.23
2022-10-20T22:13:59.052Z,34.90
2022-10-20T22:16:31.874Z,35.00
2022-10-20T22:19:03.034Z,32.33
2022-10-20T22:21:29.542Z,40.60
2022-10-20T22:23:57.100Z,34.80
2022-10-20T22:26:26.039Z,38.80
2022-10-20T22:28:52.598Z,32.57
2022-10-20T22:31:19.144Z,36.77
2022-10-20T22:33:45.613Z,31.57
2022-10-20T22:36:12.230Z,34.57
2022-10-20T22:38:38.666Z,39.03
2022-10-20T22:41:05.200Z,34.90
2022-10-20T22:43:31.774Z,35.50
2022-10-20T22:45:58.382Z,35.43
2022-10-20T22:48:25.060Z,39.97
2022-10-20T22:50:51.721Z,36.93
2022-10-20T22:53:18.314Z,39.93
2022-10-20T22:55:44.794Z,37.83
2022-10-20T22:58:11.419Z,44.80
2022-10-20T23:00:41.978Z,35.37
2022-10-20T23:03:08.476Z,34.57
2022-10-20T23:05:35.024Z,33.67
2022-10-20T23:08:01.537Z,30.33
2022-10-20T23:10:28.438Z,39.00
2022-10-20T23:12:54.834Z,43.23
2022-10-20T23:15:21.257Z,35.87
2022-10-20T23:17:47.712Z,35.30
2022-10-20T23:20:14.415Z,40.67
2022-10-20T23:22:40.866Z,36.60
2022-10-20T23:25:08.714Z,34.23
2022-10-20T23:27:35.984Z,35.63
2022-10-20T23:30:02.580Z,37.60
2022-10-20T23:32:29.005Z,40.37
2022-10-20T23:34:55.457Z,34.90
2022-10-20T23:37:23.560Z,36.57
2022-10-20T23:39:49.955Z,39.93
2022-10-20T23:42:17.525Z,36.17
2022-10-20T23:44:43.956Z,33.87
2022-10-20T23:47:10.440Z,36.23
2022-10-20T23:49:36.824Z,35.33
2022-10-20T23:52:03.270Z,34.03
2022-10-20T23:54:29.689Z,36.10
2022-10-20T23:56:56.158Z,36.60
2022-10-20T23:59:22.540Z,38.47
